Time;durP1;ratioP1;P1;durP2;ratioP2;P2;SDS_P1;SDS_P2;PMS_P1;PMS_P2;Temp;Humidity;BMP_temperature;BMP_pressure;BME280_temperature;BME280_humidity;BME280_pressure;Samples;Min_cycle;Max_cycle;Signal;HPM_P1;HPM_P2
2020/12/17 00:02:31;;;;;;;3.60;2.72;;;21.20;46.80;;;;;;6286668;28;20017;-67
2020/12/17 00:05:31;;;;;;;4.28;2.88;;;21.20;46.90;;;;;;6270189;28;20029;-65
2020/12/17 00:08:31;;;;;;;4.43;2.88;;;21.20;46.80;;;;;;6268125;28;20621;-66
2020/12/17 00:11:32;;;;;;;5.18;2.88;;;21.20;46.80;;;;;;6265993;28;20025;-66
2020/12/17 00:14:32;;;;;;;4.85;2.75;;;21.20;46.90;;;;;;6267324;28;20029;-66
2020/12/17 00:17:50;;;;;;;4.85;2.63;;;21.20;46.90;;;;;;6266742;28;20018;-67
2020/12/17 00:20:50;;;;;;;4.63;2.78;;;21.20;46.80;;;;;;6265834;28;20037;-66
2020/12/17 00:23:51;;;;;;;4.63;2.53;;;21.20;46.90;;;;;;6266535;28;20672;-68
2020/12/17 00:26:51;;;;;;;3.10;2.65;;;21.10;47.50;;;;;;6266271;28;20108;-66
2020/12/17 00:29:52;;;;;;;3.20;2.53;;;21.20;46.90;;;;;;6266098;28;20108;-65
2020/12/17 00:32:52;;;;;;;4.35;2.92;;;21.10;46.80;;;;;;6268917;28;20083;-66
2020/12/17 00:35:53;;;;;;;2.90;2.30;;;21.10;46.80;;;;;;6270711;28;20025;-66
2020/12/17 00:38:53;;;;;;;3.05;2.38;;;21.10;46.80;;;;;;6270723;28;20025;-67
2020/12/17 00:41:53;;;;;;;4.38;2.60;;;21.10;46.80;;;;;;6269780;28;20033;-67
2020/12/17 00:44:54;;;;;;;3.13;2.28;;;21.10;46.70;;;;;;6271020;28;20091;-65
2020/12/17 00:47:54;;;;;;;4.07;2.90;;;21.10;46.70;;;;;;6270146;28;20029;-65
2020/12/17 00:50:55;;;;;;;3.85;2.60;;;21.10;46.80;;;;;;6270549;28;20043;-66
2020/12/17 00:53:55;;;;;;;3.65;2.58;;;21.10;46.80;;;;;;6270555;28;20036;-67
2020/12/17 00:56:56;;;;;;;3.20;2.42;;;21.10;46.80;;;;;;6270079;28;20032;-66
2020/12/17 00:59:56;;;;;;;3.50;2.45;;;21.10;46.80;;;;;;6270099;28;20033;-65
2020/12/17 01:02:57;;;;;;;2.92;2.20;;;21.10;46.80;;;;;;6269822;28;20029;-65
2020/12/17 01:05:57;;;;;;;4.07;2.38;;;21.10;46.90;;;;;;6270501;28;20040;-67
2020/12/17 01:08:58;;;;;;;3.45;2.30;;;21.10;46.80;;;;;;6269366;28;20036;-67
2020/12/17 01:11:58;;;;;;;3.95;2.53;;;21.10;46.80;;;;;;6269857;28;20037;-66
2020/12/17 01:14:59;;;;;;;4.47;2.88;;;21.10;46.80;;;;;;6269454;28;20028;-66
2020/12/17 01:17:59;;;;;;;3.38;2.58;;;21.10;46.80;;;;;;6268695;28;20017;-66
2020/12/17 01:21:03;;;;;;;4.03;2.30;;;21.10;46.80;;;;;;6269432;28;20068;-67
2020/12/17 01:24:04;;;;;;;3.53;2.40;;;21.10;46.80;;;;;;6269191;28;20053;-66
2020/12/17 01:27:04;;;;;;;3.05;2.33;;;21.10;46.90;;;;;;6270033;28;20035;-66
2020/12/17 01:30:04;;;;;;;3.80;2.55;;;21.00;46.80;;;;;;6268845;28;20119;-67
2020/12/17 01:33:05;;;;;;;3.50;2.40;;;21.00;46.80;;;;;;6269694;28;20060;-67
2020/12/17 01:36:07;;;;;;;3.35;2.60;;;21.00;46.80;;;;;;6269099;28;20408;-66
2020/12/17 01:39:07;;;;;;;3.63;2.80;;;21.00;46.80;;;;;;6269060;28;20078;-67
2020/12/17 01:42:08;;;;;;;3.80;2.45;;;21.00;46.70;;;;;;6267886;28;20033;-65
2020/12/17 01:45:09;;;;;;;2.83;2.22;;;21.00;46.70;;;;;;6269123;28;20152;-67
2020/12/17 01:48:14;;;;;;;3.83;2.35;;;21.00;46.80;;;;;;6269246;28;20033;-66
2020/12/17 01:51:14;;;;;;;3.42;2.50;;;21.00;46.80;;;;;;6268573;28;20469;-66
2020/12/17 01:54:15;;;;;;;3.00;2.55;;;21.00;46.80;;;;;;6269983;28;20036;-67
2020/12/17 01:57:16;;;;;;;3.65;2.40;;;21.00;46.80;;;;;;6268703;28;20033;-67
2020/12/17 02:00:18;;;;;;;2.55;2.25;;;21.00;46.80;;;;;;6268410;28;20028;-67
2020/12/17 02:03:20;;;;;;;3.17;2.38;;;21.00;46.80;;;;;;6268426;28;20384;-66
2020/12/17 02:06:21;;;;;;;2.90;2.33;;;21.00;46.80;;;;;;6268618;28;20089;-66
2020/12/17 02:09:21;;;;;;;2.63;2.17;;;21.00;46.80;;;;;;6268431;28;20060;-66
2020/12/17 02:12:22;;;;;;;2.78;2.05;;;21.00;46.80;;;;;;6268166;28;20032;-66
2020/12/17 02:15:22;;;;;;;3.13;2.20;;;21.00;46.80;;;;;;6268401;28;20028;-67
2020/12/17 02:18:23;;;;;;;3.22;2.22;;;21.00;46.80;;;;;;6268193;28;20017;-67
2020/12/17 02:21:24;;;;;;;3.58;2.30;;;21.00;46.80;;;;;;6268148;28;20017;-67
2020/12/17 02:24:24;;;;;;;3.03;2.30;;;21.00;46.80;;;;;;6268328;28;20032;-67
2020/12/17 02:27:25;;;;;;;3.42;2.20;;;21.00;46.80;;;;;;6268198;28;20033;-67
2020/12/17 02:30:25;;;;;;;4.05;2.20;;;21.00;46.80;;;;;;6267776;28;20029;-66
2020/12/17 02:33:26;;;;;;;3.22;2.05;;;21.00;46.80;;;;;;6267921;28;20104;-67
2020/12/17 02:36:26;;;;;;;3.72;2.50;;;21.00;46.80;;;;;;6267896;28;20036;-67
2020/12/17 02:39:27;;;;;;;3.25;1.90;;;21.00;46.80;;;;;;6267880;28;20117;-67
2020/12/17 02:42:27;;;;;;;2.65;2.10;;;21.00;46.80;;;;;;6266054;28;20025;-66
2020/12/17 02:45:28;;;;;;;2.88;2.17;;;21.00;46.80;;;;;;6267996;28;20033;-66
2020/12/17 02:48:29;;;;;;;3.30;2.47;;;21.00;46.80;;;;;;6267635;28;20025;-66
2020/12/17 02:51:29;;;;;;;2.55;2.10;;;21.00;46.80;;;;;;6267285;28;20067;-66
2020/12/17 02:54:30;;;;;;;3.90;2.33;;;21.00;46.80;;;;;;6260716;28;20384;-66
2020/12/17 02:57:30;;;;;;;2.90;2.08;;;21.00;46.80;;;;;;6267699;28;20606;-65
2020/12/17 03:00:32;;;;;;;2.95;2.05;;;20.90;46.70;;;;;;6267017;28;20069;-67
2020/12/17 03:03:32;;;;;;;2.88;2.30;;;20.90;46.70;;;;;;6267181;28;20036;-67
2020/12/17 03:06:32;;;;;;;2.90;2.22;;;20.90;46.70;;;;;;6267797;28;20033;-68
2020/12/17 03:09:33;;;;;;;2.85;2.10;;;20.90;46.70;;;;;;6267165;28;20031;-67
2020/12/17 03:12:33;;;;;;;2.85;2.25;;;20.90;46.70;;;;;;6256327;28;20569;-67
2020/12/17 03:15:34;;;;;;;4.03;2.53;;;20.90;46.70;;;;;;6252614;28;20637;-68
2020/12/17 03:18:34;;;;;;;2.42;2.03;;;20.90;46.70;;;;;;6262748;28;20934;-67
2020/12/17 03:21:35;;;;;;;2.72;2.10;;;20.90;46.70;;;;;;6248702;28;20420;-67
2020/12/17 03:24:35;;;;;;;4.38;2.63;;;20.90;46.70;;;;;;6242228;28;20029;-67
2020/12/17 03:27:36;;;;;;;2.53;2.10;;;20.90;46.70;;;;;;6243014;28;20030;-67
2020/12/17 03:30:37;;;;;;;2.60;1.90;;;20.90;46.70;;;;;;6242476;28;20037;-67
2020/12/17 03:33:37;;;;;;;2.65;2.13;;;20.90;46.70;;;;;;6242741;28;20025;-67
2020/12/17 03:36:38;;;;;;;2.88;2.15;;;20.90;46.60;;;;;;6242148;28;20040;-67
2020/12/17 03:39:39;;;;;;;2.72;2.20;;;20.90;47.30;;;;;;6242192;28;20034;-67
2020/12/17 03:42:39;;;;;;;3.00;2.22;;;20.90;46.70;;;;;;6242338;28;20112;-67
2020/12/17 03:45:40;;;;;;;2.88;2.10;;;20.90;46.70;;;;;;6241719;28;20068;-67
2020/12/17 03:48:40;;;;;;;2.80;2.20;;;20.90;46.70;;;;;;6242172;28;20033;-67
2020/12/17 03:51:41;;;;;;;2.85;1.90;;;20.90;46.70;;;;;;6241330;28;20034;-67
2020/12/17 03:54:41;;;;;;;3.05;2.30;;;20.90;46.70;;;;;;6248665;28;20021;-66
2020/12/17 03:57:42;;;;;;;4.30;2.58;;;20.90;46.70;;;;;;6266385;28;20021;-67
2020/12/17 04:00:42;;;;;;;3.33;2.25;;;20.90;46.70;;;;;;6266421;28;20032;-67
2020/12/17 04:03:42;;;;;;;3.25;2.35;;;20.90;46.70;;;;;;6266588;28;20112;-67
2020/12/17 04:06:43;;;;;;;2.85;2.30;;;20.90;46.80;;;;;;6269273;28;20056;-67
2020/12/17 04:09:43;;;;;;;2.33;2.00;;;20.90;46.70;;;;;;6271329;28;20047;-67
2020/12/17 04:12:44;;;;;;;2.22;1.85;;;20.90;46.70;;;;;;6270995;28;20659;-67
2020/12/17 04:15:44;;;;;;;3.17;2.20;;;20.80;46.60;;;;;;6271513;28;20037;-67
2020/12/17 04:18:45;;;;;;;2.80;2.05;;;20.80;46.50;;;;;;6271166;28;20049;-67
2020/12/17 04:21:45;;;;;;;2.65;2.08;;;20.80;46.60;;;;;;6270492;28;20036;-67
2020/12/17 04:24:47;;;;;;;2.92;2.30;;;20.80;46.60;;;;;;6270953;28;20115;-67
2020/12/17 04:27:47;;;;;;;3.33;2.20;;;20.80;46.60;;;;;;6270866;28;20519;-67
2020/12/17 04:30:48;;;;;;;2.40;2.15;;;20.80;46.50;;;;;;6270712;28;20074;-67
2020/12/17 04:33:48;;;;;;;2.60;2.08;;;20.80;46.60;;;;;;6270805;28;20460;-67
2020/12/17 04:36:49;;;;;;;3.05;2.15;;;20.80;46.50;;;;;;6271622;28;20024;-67
2020/12/17 04:39:49;;;;;;;2.78;2.10;;;20.80;46.50;;;;;;6285791;28;20033;-66
2020/12/17 04:42:50;;;;;;;3.25;2.15;;;20.80;46.60;;;;;;6270378;28;20029;-66
2020/12/17 04:45:51;;;;;;;2.58;2.20;;;20.80;46.60;;;;;;6270751;28;20025;-66
2020/12/17 04:48:53;;;;;;;3.42;2.22;;;20.80;46.60;;;;;;6270559;28;20025;-66
2020/12/17 04:51:56;;;;;;;2.20;1.88;;;20.80;46.60;;;;;;6270248;28;20040;-66
2020/12/17 04:54:57;;;;;;;2.55;1.83;;;20.80;46.60;;;;;;6270465;28;20043;-66
2020/12/17 04:57:59;;;;;;;3.33;2.35;;;20.80;46.50;;;;;;6270161;28;20021;-66
2020/12/17 05:01:01;;;;;;;2.67;2.15;;;20.80;46.60;;;;;;6269887;28;20140;-66
2020/12/17 05:04:02;;;;;;;3.45;2.60;;;20.80;46.60;;;;;;6270334;28;20029;-66
2020/12/17 05:07:05;;;;;;;2.10;1.70;;;20.80;46.60;;;;;;6270227;28;20057;-66
2020/12/17 05:10:05;;;;;;;2.83;2.10;;;20.80;46.60;;;;;;6269366;28;20043;-66
2020/12/17 05:13:06;;;;;;;2.90;2.13;;;20.80;46.50;;;;;;6269038;28;20052;-66
2020/12/17 05:16:06;;;;;;;6.00;2.47;;;20.80;46.50;;;;;;6269950;28;20029;-67
2020/12/17 05:19:07;;;;;;;2.63;2.03;;;20.80;46.50;;;;;;6268714;28;20099;-67
2020/12/17 05:22:09;;;;;;;3.40;2.20;;;20.80;46.50;;;;;;6269381;28;20503;-66
2020/12/17 05:25:12;;;;;;;3.58;2.47;;;20.80;46.50;;;;;;6269324;28;20033;-67
2020/12/17 05:28:13;;;;;;;2.65;2.08;;;20.80;46.50;;;;;;6269887;28;20060;-67
2020/12/17 05:31:20;;;;;;;2.60;2.00;;;20.80;46.40;;;;;;6268954;28;20020;-67
2020/12/17 05:34:21;;;;;;;3.35;2.22;;;20.80;46.40;;;;;;6269962;28;20099;-67
2020/12/17 05:37:22;;;;;;;3.10;2.33;;;20.80;46.40;;;;;;6269437;28;20025;-66
2020/12/17 05:40:24;;;;;;;3.22;2.08;;;20.80;46.40;;;;;;6268960;28;20037;-66
2020/12/17 05:43:29;;;;;;;2.70;2.00;;;20.80;46.50;;;;;;6269653;28;20027;-67
2020/12/17 05:46:37;;;;;;;;;;;20.80;46.40;;;;;;6269093;28;20384;-66
2020/12/17 05:49:37;;;;;;;3.08;2.38;;;20.80;46.40;;;;;;6269255;28;20282;-66
2020/12/17 05:52:39;;;;;;;3.35;2.00;;;20.80;46.40;;;;;;6265919;28;20064;-66
2020/12/17 05:55:40;;;;;;;2.90;2.22;;;20.80;46.40;;;;;;6244469;28;20759;-66
2020/12/17 05:58:44;;;;;;;3.17;2.47;;;20.80;46.40;;;;;;6243773;28;20111;-66
2020/12/17 06:01:44;;;;;;;3.05;2.40;;;20.80;46.40;;;;;;6243812;28;20025;-66
2020/12/17 06:04:45;;;;;;;2.33;1.98;;;20.80;46.40;;;;;;6244036;28;20064;-66
2020/12/17 06:07:50;;;;;;;3.22;2.20;;;20.80;46.40;;;;;;6244045;28;20079;-66
2020/12/17 06:11:01;;;;;;;3.13;2.30;;;20.80;46.40;;;;;;6243649;28;20029;-67
2020/12/17 06:14:02;;;;;;;3.65;2.60;;;20.90;46.40;;;;;;6246184;28;20708;-67
2020/12/17 06:17:07;;;;;;;2.28;2.08;;;20.90;46.30;;;;;;6246548;28;20040;-67
2020/12/17 06:20:08;;;;;;;2.75;2.00;;;21.00;47.00;;;;;;6247579;28;20089;-67
2020/12/17 06:23:12;;;;;;;2.67;2.03;;;21.00;47.00;;;;;;6245667;28;20676;-67
2020/12/17 06:26:12;;;;;;;2.63;2.08;;;21.10;47.00;;;;;;6244595;28;20361;-67
2020/12/17 06:29:21;;;;;;;2.55;2.20;;;21.10;46.90;;;;;;6243754;28;20096;-66
2020/12/17 06:32:28;;;;;;;2.65;2.17;;;21.20;46.90;;;;;;6243314;28;20152;-67
2020/12/17 06:35:51;;;;;;;2.65;2.13;;;21.20;46.70;;;;;;6243496;28;20022;-67
2020/12/17 06:38:53;;;;;;;2.38;1.85;;;21.20;46.70;;;;;;6243043;28;20022;-66
2020/12/17 06:41:53;;;;;;;2.33;1.77;;;21.20;46.70;;;;;;6243306;28;20080;-66
2020/12/17 06:44:54;;;;;;;2.80;2.08;;;21.30;46.80;;;;;;6242863;28;20503;-66
2020/12/17 06:47:54;;;;;;;2.92;2.38;;;21.30;47.00;;;;;;6243369;28;20400;-67
2020/12/17 06:50:54;;;;;;;2.80;2.20;;;21.30;46.60;;;;;;6242219;28;20026;-66
2020/12/17 06:53:55;;;;;;;3.00;2.25;;;21.30;46.80;;;;;;6243028;28;20017;-67
2020/12/17 06:57:12;;;;;;;2.63;2.10;;;21.30;46.70;;;;;;6242863;28;20120;-66
2020/12/17 07:00:12;;;;;;;2.53;2.00;;;21.30;46.60;;;;;;6243540;28;20041;-66
2020/12/17 07:03:44;;;;;;;3.03;2.13;;;21.40;46.70;;;;;;6244821;28;20112;-67
2020/12/17 07:06:46;;;;;;;2.63;2.30;;;21.40;46.70;;;;;;6243979;28;20391;-67
2020/12/17 07:09:48;;;;;;;3.25;2.38;;;21.40;46.70;;;;;;6243788;28;20025;-67
2020/12/17 07:12:50;;;;;;;3.10;2.28;;;21.40;46.70;;;;;;6244047;28;20028;-67
2020/12/17 07:15:51;;;;;;;2.88;2.30;;;21.40;46.80;;;;;;6244111;28;20036;-67
2020/12/17 07:19:12;;;;;;;3.45;2.40;;;21.40;46.70;;;;;;6244024;28;20591;-67
2020/12/17 07:22:15;;;;;;;2.47;2.08;;;21.40;46.70;;;;;;6243278;28;20038;-67
2020/12/17 07:25:32;;;;;;;3.05;1.88;;;21.40;46.70;;;;;;6243848;28;20583;-67
2020/12/17 07:28:33;;;;;;;2.72;2.05;;;21.40;46.70;;;;;;6242778;28;20034;-68
2020/12/17 07:31:34;;;;;;;2.42;1.92;;;21.40;46.70;;;;;;6243408;28;20033;-68
2020/12/17 07:34:35;;;;;;;2.88;2.03;;;21.40;46.80;;;;;;6244117;28;20061;-67
2020/12/17 07:37:59;;;;;;;13.30;3.90;;;21.40;46.70;;;;;;6234519;28;20038;-70
2020/12/17 07:40:59;;;;;;;13.18;8.07;;;21.30;46.00;;;;;;6240375;28;20068;-69
2020/12/17 07:44:00;;;;;;;13.38;8.40;;;21.10;43.40;;;;;;6246678;28;20029;-67
2020/12/17 07:47:18;;;;;;;24.98;10.07;;;21.00;41.10;;;;;;6246936;28;20026;-67
2020/12/17 07:50:36;;;;;;;11.00;6.15;;;21.40;41.70;;;;;;6245892;28;20018;-68
2020/12/17 07:53:37;;;;;;;13.52;6.28;;;21.40;43.70;;;;;;6246157;28;20392;-68
2020/12/17 07:56:37;;;;;;;9.70;4.80;;;21.40;43.80;;;;;;6254274;28;20020;-68
2020/12/17 07:59:38;;;;;;;8.30;5.22;;;21.40;44.30;;;;;;6246041;28;20033;-68
2020/12/17 08:02:41;;;;;;;8.15;5.63;;;21.50;44.20;;;;;;6246686;28;20040;-69
2020/12/17 08:05:41;;;;;;;11.32;6.40;;;21.50;44.20;;;;;;6246426;28;20022;-68
2020/12/17 08:08:42;;;;;;;6.45;5.00;;;21.60;44.50;;;;;;6246087;28;20603;-69
2020/12/17 08:11:54;;;;;;;7.93;5.30;;;21.60;44.50;;;;;;6244048;28;20681;-70
2020/12/17 08:15:15;;;;;;;8.45;5.18;;;21.60;44.30;;;;;;6257396;28;20025;-69
2020/12/17 08:18:22;;;;;;;10.23;4.43;;;21.60;44.40;;;;;;6256862;28;20068;-69
2020/12/17 08:21:23;;;;;;;7.22;4.30;;;21.60;44.40;;;;;;6244699;28;20423;-70
2020/12/17 08:24:28;;;;;;;6.95;4.75;;;21.60;44.50;;;;;;6253766;28;20130;-67
2020/12/17 08:27:29;;;;;;;15.02;5.07;;;21.60;43.20;;;;;;6270499;28;20127;-68
2020/12/17 08:30:29;;;;;;;11.77;4.45;;;21.70;44.30;;;;;;6264958;28;20051;-69
2020/12/17 08:33:30;;;;;;;6.18;4.13;;;21.90;45.70;;;;;;6245774;28;20045;-68
2020/12/17 08:36:37;;;;;;;7.35;4.30;;;22.00;44.60;;;;;;6245973;28;20025;-67
2020/12/17 08:39:37;;;;;;;9.70;4.28;;;21.90;44.30;;;;;;6245799;28;20034;-69
2020/12/17 08:42:43;;;;;;;9.18;4.25;;;21.90;44.50;;;;;;6245762;28;20098;-71
2020/12/17 08:45:44;;;;;;;6.93;4.10;;;21.90;44.50;;;;;;6267090;28;20075;-69
2020/12/17 08:48:45;;;;;;;7.15;4.15;;;22.00;44.30;;;;;;6270664;28;20072;-68
2020/12/17 08:51:46;;;;;;;14.10;3.80;;;22.00;44.20;;;;;;6258778;28;20692;-68
2020/12/17 08:54:47;;;;;;;13.98;4.22;;;22.00;44.70;;;;;;6247953;28;20028;-67
2020/12/17 08:57:48;;;;;;;31.85;4.32;;;22.00;44.80;;;;;;6246002;28;20040;-68
2020/12/17 09:00:48;;;;;;;24.55;4.55;;;22.00;45.10;;;;;;6239716;28;20072;-67
2020/12/17 09:03:49;;;;;;;16.02;4.72;;;22.00;45.00;;;;;;6227037;28;20542;-68
2020/12/17 09:06:51;;;;;;;17.45;4.93;;;22.00;45.10;;;;;;6245666;28;20053;-67
2020/12/17 09:09:52;;;;;;;24.88;6.47;;;22.10;45.10;;;;;;6247739;28;20111;-67
2020/12/17 09:12:56;;;;;;;30.63;8.50;;;22.10;45.30;;;;;;6249538;28;20623;-69
2020/12/17 09:16:01;;;;;;;29.48;9.43;;;22.00;45.30;;;;;;6256423;28;20421;-69
2020/12/17 09:19:06;;;;;;;28.17;8.15;;;22.00;45.50;;;;;;6268808;28;20052;-68
2020/12/17 09:22:07;;;;;;;31.67;11.52;;;22.00;45.30;;;;;;6248971;28;20484;-69
2020/12/17 09:25:08;;;;;;;38.60;12.10;;;22.00;45.70;;;;;;6243705;28;20032;-70
2020/12/17 09:28:19;;;;;;;28.58;10.20;;;21.90;46.50;;;;;;6261327;28;20028;-68
2020/12/17 09:31:22;;;;;;;28.00;8.63;;;22.00;46.20;;;;;;6256510;28;20025;-68
2020/12/17 09:34:23;;;;;;;33.83;10.38;;;22.00;45.90;;;;;;6244167;28;20033;-70
2020/12/17 09:37:23;;;;;;;32.08;9.20;;;22.00;46.50;;;;;;6244253;28;20022;-64
2020/12/17 09:40:24;;;;;;;25.88;9.80;;;22.00;46.70;;;;;;6244585;28;20042;-68
2020/12/17 09:43:25;;;;;;;68.20;10.35;;;22.10;46.20;;;;;;6244996;28;20491;-70
2020/12/17 09:46:26;;;;;;;35.65;9.55;;;22.00;46.70;;;;;;6245616;28;20030;-68
2020/12/17 09:49:46;;;;;;;29.08;10.30;;;22.10;46.10;;;;;;6244667;28;20036;-69
2020/12/17 09:52:47;;;;;;;26.48;9.50;;;22.00;46.00;;;;;;6238863;28;20041;-69
2020/12/17 09:55:48;;;;;;;22.55;9.02;;;22.00;46.10;;;;;;6240272;28;20021;-67
2020/12/17 09:58:48;;;;;;;33.97;10.52;;;22.10;46.50;;;;;;6237310;28;20034;-71
2020/12/17 10:01:56;;;;;;;29.88;9.20;;;22.10;46.20;;;;;;6239055;28;20112;-68
2020/12/17 10:04:56;;;;;;;24.40;8.60;;;22.10;46.40;;;;;;6243060;28;20022;-69
2020/12/17 10:07:57;;;;;;;24.70;9.63;;;22.10;46.10;;;;;;6244090;28;20076;-67
2020/12/17 10:10:57;;;;;;;27.90;8.52;;;22.10;46.00;;;;;;6247823;28;20088;-68
2020/12/17 10:13:58;;;;;;;28.90;9.05;;;22.10;45.80;;;;;;6255512;28;20032;-68
2020/12/17 10:17:00;;;;;;;26.42;9.45;;;22.20;46.10;;;;;;6244830;28;20072;-69
2020/12/17 10:20:03;;;;;;;25.55;8.25;;;22.20;45.90;;;;;;6253362;28;20099;-69
2020/12/17 10:23:04;;;;;;;29.58;9.38;;;22.20;46.00;;;;;;6264237;28;20028;-69
2020/12/17 10:26:05;;;;;;;18.70;7.88;;;22.20;46.00;;;;;;6268807;28;20044;-70
2020/12/17 10:29:05;;;;;;;26.05;8.35;;;22.20;46.00;;;;;;6242800;28;20120;-68
2020/12/17 10:32:06;;;;;;;17.60;7.57;;;22.20;46.60;;;;;;6249764;28;20022;-68
2020/12/17 10:35:07;;;;;;;22.33;7.60;;;22.20;46.30;;;;;;6243909;28;20040;-66
2020/12/17 10:38:07;;;;;;;19.48;8.18;;;22.30;46.30;;;;;;6244686;28;20567;-65
2020/12/17 10:41:08;;;;;;;18.02;7.63;;;22.30;46.30;;;;;;6243516;28;20037;-69
2020/12/17 10:44:09;;;;;;;20.65;8.55;;;22.30;46.20;;;;;;6242727;28;20026;-69
2020/12/17 10:47:09;;;;;;;18.60;7.38;;;22.20;46.10;;;;;;6252981;28;20033;-68
2020/12/17 10:50:10;;;;;;;23.13;10.63;;;22.20;46.10;;;;;;6256004;28;20104;-71
2020/12/17 10:53:10;;;;;;;19.58;9.23;;;22.10;43.20;;;;;;6243991;28;20464;-69
2020/12/17 10:56:11;;;;;;;21.30;9.27;;;22.10;44.10;;;;;;6243826;28;20022;-69
2020/12/17 10:59:12;;;;;;;20.63;8.25;;;22.10;44.10;;;;;;6243955;28;20553;-68
2020/12/17 11:02:12;;;;;;;18.15;8.15;;;22.10;44.30;;;;;;6248881;28;20056;-70
2020/12/17 11:05:13;;;;;;;20.00;7.45;;;22.00;43.90;;;;;;6244330;28;20026;-68
2020/12/17 11:08:13;;;;;;;23.30;8.18;;;22.00;44.10;;;;;;6252658;28;20079;-68
2020/12/17 11:11:15;;;;;;;18.55;8.57;;;22.10;45.00;;;;;;6268678;28;20033;-68
2020/12/17 11:14:16;;;;;;;16.00;6.90;;;22.00;44.30;;;;;;6268709;28;20025;-68
2020/12/17 11:17:17;;;;;;;16.63;7.55;;;21.90;44.50;;;;;;6268734;28;20104;-67
2020/12/17 11:20:18;;;;;;;19.80;8.63;;;21.90;44.50;;;;;;6269362;28;20048;-68
2020/12/17 11:23:19;;;;;;;18.48;7.50;;;21.90;44.60;;;;;;6268631;28;20112;-68
2020/12/17 11:26:19;;;;;;;13.82;7.32;;;21.90;44.70;;;;;;6268400;28;20035;-68
2020/12/17 11:29:20;;;;;;;11.85;6.60;;;21.90;44.70;;;;;;6249314;28;20049;-68
2020/12/17 11:32:21;;;;;;;16.85;7.00;;;21.90;44.80;;;;;;6244594;28;20544;-67
2020/12/17 11:35:21;;;;;;;13.77;6.78;;;21.80;44.80;;;;;;6244239;28;20025;-68
2020/12/17 11:38:22;;;;;;;12.63;6.60;;;21.80;44.80;;;;;;6244121;28;20026;-67
2020/12/17 11:41:23;;;;;;;14.88;6.20;;;21.90;44.80;;;;;;6243916;28;20033;-67
2020/12/17 11:44:25;;;;;;;12.80;6.45;;;21.90;44.80;;;;;;6244378;28;20034;-67
2020/12/17 11:47:29;;;;;;;11.98;6.03;;;21.80;44.80;;;;;;6243927;28;20022;-69
2020/12/17 11:50:29;;;;;;;11.95;6.18;;;21.80;44.90;;;;;;6244146;28;20105;-67
2020/12/17 11:53:30;;;;;;;14.50;6.50;;;21.80;44.90;;;;;;6243684;28;20049;-67
2020/12/17 11:56:30;;;;;;;12.57;6.00;;;21.80;45.00;;;;;;6244253;28;20476;-69
2020/12/17 11:59:31;;;;;;;10.55;6.07;;;21.80;45.00;;;;;;6243709;28;20022;-67
2020/12/17 12:02:32;;;;;;;9.15;5.57;;;21.80;45.00;;;;;;6244222;28;20409;-66
2020/12/17 12:05:32;;;;;;;9.88;5.50;;;21.80;45.00;;;;;;6243080;28;20249;-68
2020/12/17 12:08:33;;;;;;;8.65;5.05;;;21.70;45.00;;;;;;6245287;28;20033;-68
2020/12/17 12:11:33;;;;;;;8.43;5.18;;;21.80;45.10;;;;;;6246525;28;20082;-68
2020/12/17 12:14:34;;;;;;;9.05;5.32;;;21.70;45.00;;;;;;6245633;28;20017;-68
2020/12/17 12:17:34;;;;;;;11.60;6.35;;;21.70;45.10;;;;;;6259036;28;20487;-69
2020/12/17 12:20:35;;;;;;;9.68;5.18;;;21.70;45.10;;;;;;6268545;28;20033;-69
2020/12/17 12:23:35;;;;;;;9.18;5.90;;;21.70;45.10;;;;;;6268905;28;20044;-69
2020/12/17 12:26:36;;;;;;;8.50;4.75;;;21.70;45.10;;;;;;6270212;28;20031;-69
2020/12/17 12:29:36;;;;;;;8.85;5.05;;;21.70;45.10;;;;;;6273897;28;20029;-68
2020/12/17 12:32:37;;;;;;;8.43;4.88;;;21.70;45.20;;;;;;6274381;28;20027;-65
2020/12/17 12:35:37;;;;;;;8.50;5.40;;;21.70;45.20;;;;;;6273049;28;20075;-68
2020/12/17 12:38:39;;;;;;;8.85;4.60;;;21.70;45.10;;;;;;6273540;28;20036;-68
2020/12/17 12:41:39;;;;;;;10.65;5.18;;;21.70;45.20;;;;;;6272955;28;20066;-69
2020/12/17 12:44:39;;;;;;;10.20;5.05;;;21.70;45.10;;;;;;6272874;28;20433;-68
2020/12/17 12:47:40;;;;;;;9.27;5.13;;;21.70;45.50;;;;;;6267716;28;20365;-68
2020/12/17 12:50:40;;;;;;;9.13;4.78;;;21.70;45.10;;;;;;6247527;28;20443;-68
2020/12/17 12:53:41;;;;;;;9.27;4.60;;;21.70;45.40;;;;;;6260110;28;20534;-67
2020/12/17 12:56:41;;;;;;;7.07;4.35;;;21.70;45.20;;;;;;6272466;28;20446;-68
2020/12/17 12:59:42;;;;;;;7.32;4.25;;;21.70;45.40;;;;;;6272535;28;20487;-68
2020/12/17 13:02:42;;;;;;;8.63;4.50;;;21.70;45.20;;;;;;6271751;28;20384;-68
2020/12/17 13:05:43;;;;;;;9.27;4.25;;;21.70;45.40;;;;;;6271838;28;20494;-68
2020/12/17 13:08:43;;;;;;;6.85;3.72;;;21.70;45.30;;;;;;6272726;28;20275;-67
2020/12/17 13:11:44;;;;;;;8.55;4.28;;;21.70;45.20;;;;;;6271810;28;20029;-66
2020/12/17 13:14:44;;;;;;;7.72;4.18;;;21.70;45.30;;;;;;6271815;28;20021;-68
2020/12/17 13:17:45;;;;;;;6.60;4.10;;;21.70;45.30;;;;;;6271592;28;20373;-68
2020/12/17 13:20:45;;;;;;;6.72;3.80;;;21.70;45.10;;;;;;6247469;28;20522;-68
2020/12/17 13:23:48;;;;;;;7.00;4.13;;;21.80;45.10;;;;;;6245529;28;20041;-67
2020/12/17 13:26:48;;;;;;;6.50;4.15;;;21.80;45.30;;;;;;6272100;28;20028;-66
2020/12/17 13:29:49;;;;;;;5.93;4.10;;;21.80;45.40;;;;;;6271793;28;20431;-69
2020/12/17 13:32:49;;;;;;;6.07;3.95;;;21.80;45.30;;;;;;6271609;28;20368;-67
2020/12/17 13:35:50;;;;;;;5.15;3.50;;;21.80;45.00;;;;;;6271887;28;20112;-66
2020/12/17 13:38:50;;;;;;;6.70;4.07;;;21.80;45.10;;;;;;6270356;28;20057;-68
2020/12/17 13:41:51;;;;;;;6.43;3.67;;;21.80;45.10;;;;;;6272027;28;20067;-66
2020/12/17 13:44:51;;;;;;;5.80;3.67;;;21.80;45.00;;;;;;6270973;28;20021;-68
2020/12/17 13:47:52;;;;;;;6.60;3.83;;;21.90;45.10;;;;;;6271137;28;20070;-68
2020/12/17 13:50:52;;;;;;;6.13;3.83;;;21.80;45.10;;;;;;6271726;28;20045;-66
2020/12/17 13:53:53;;;;;;;5.97;3.70;;;21.80;45.00;;;;;;6270928;28;20072;-64
2020/12/17 13:56:53;;;;;;;5.55;3.35;;;21.80;44.90;;;;;;6270782;28;20025;-66
2020/12/17 13:59:54;;;;;;;5.72;3.70;;;21.80;44.90;;;;;;6269993;28;20024;-68
2020/12/17 14:02:55;;;;;;;6.20;3.63;;;21.80;44.90;;;;;;6269771;28;20079;-67
2020/12/17 14:05:55;;;;;;;4.47;3.42;;;21.80;44.90;;;;;;6269812;28;20418;-68
2020/12/17 14:08:56;;;;;;;6.32;3.65;;;21.80;45.00;;;;;;6269325;28;20553;-67
2020/12/17 14:11:56;;;;;;;5.95;3.70;;;21.80;45.00;;;;;;6269676;28;20104;-66
2020/12/17 14:14:57;;;;;;;4.43;3.00;;;21.80;45.10;;;;;;6269349;28;20032;-66
2020/12/17 14:17:57;;;;;;;5.20;3.15;;;21.80;45.10;;;;;;6269870;28;20024;-66
2020/12/17 14:20:58;;;;;;;5.22;3.38;;;21.80;45.40;;;;;;6269763;28;20078;-67
2020/12/17 14:23:58;;;;;;;5.28;3.25;;;21.80;45.30;;;;;;6269510;28;20503;-66
2020/12/17 14:26:58;;;;;;;5.00;2.97;;;21.80;45.50;;;;;;6269602;28;20491;-66
2020/12/17 14:29:59;;;;;;;4.60;3.38;;;21.80;45.30;;;;;;6268945;28;20521;-67
2020/12/17 14:32:59;;;;;;;5.57;3.47;;;21.70;45.40;;;;;;6269444;28;20487;-66
2020/12/17 14:36:02;;;;;;;5.38;3.20;;;21.80;45.40;;;;;;6269186;28;20044;-65
2020/12/17 14:39:02;;;;;;;4.70;3.30;;;21.70;45.50;;;;;;6269289;28;20029;-66
2020/12/17 14:42:03;;;;;;;4.63;3.17;;;21.70;45.60;;;;;;6269010;28;20490;-66
2020/12/17 14:45:04;;;;;;;4.18;2.88;;;21.70;45.60;;;;;;6269122;28;20029;-66
2020/12/17 14:48:04;;;;;;;4.18;3.03;;;21.70;45.60;;;;;;6269016;28;20040;-66
2020/12/17 14:51:09;;;;;;;4.47;2.85;;;21.70;45.60;;;;;;6268401;28;20185;-67
2020/12/17 14:54:10;;;;;;;4.25;3.03;;;21.70;45.50;;;;;;6266962;28;20686;-66
2020/12/17 14:57:10;;;;;;;5.53;3.22;;;21.70;45.40;;;;;;6243530;28;20041;-65
2020/12/17 15:00:11;;;;;;;4.30;3.33;;;21.70;45.60;;;;;;6243729;28;20463;-66
2020/12/17 15:03:11;;;;;;;3.58;2.78;;;21.70;45.50;;;;;;6243683;28;20068;-65
2020/12/17 15:06:12;;;;;;;3.55;2.60;;;21.70;45.60;;;;;;6244317;28;20116;-67
2020/12/17 15:09:13;;;;;;;3.70;2.80;;;21.70;45.20;;;;;;6242160;28;20037;-66
2020/12/17 15:12:13;;;;;;;4.22;3.13;;;21.70;45.30;;;;;;6243385;28;20029;-67
2020/12/17 15:15:14;;;;;;;4.35;2.90;;;21.70;45.50;;;;;;6243927;28;20033;-65
2020/12/17 15:18:17;;;;;;;4.00;2.70;;;21.70;45.50;;;;;;6243984;28;20492;-66
2020/12/17 15:21:18;;;;;;;4.40;2.75;;;21.70;45.40;;;;;;6244255;28;20366;-66
2020/12/17 15:24:18;;;;;;;3.78;2.78;;;21.70;45.40;;;;;;6243226;28;20049;-66
2020/12/17 15:27:19;;;;;;;3.42;2.50;;;21.70;45.50;;;;;;6243447;28;20109;-66
2020/12/17 15:30:19;;;;;;;3.72;2.65;;;21.80;45.50;;;;;;6242746;28;20336;-65
2020/12/17 15:33:20;;;;;;;3.28;2.50;;;21.70;45.40;;;;;;6243435;28;20390;-66
2020/12/17 15:36:22;;;;;;;3.80;2.50;;;21.80;45.60;;;;;;6243319;28;20044;-66
2020/12/17 15:39:23;;;;;;;14.30;2.92;;;21.70;45.60;;;;;;6239647;28;20029;-70
2020/12/17 15:42:23;;;;;;;9.43;3.13;;;21.60;45.60;;;;;;6234780;28;20034;-68
2020/12/17 15:45:24;;;;;;;4.38;3.10;;;21.60;45.70;;;;;;6241829;28;20029;-65